sensor_id;sensor_type;location;lat;lon;timestamp;temperature;humidity
42201;DHT22;27869;51.442;7.540;2023-11-21T00:00:01;6.40;99.90
42201;DHT22;27869;51.442;7.540;2023-11-21T00:02:30;6.50;99.90
42201;DHT22;27869;51.442;7.540;2023-11-21T00:04:57;6.50;99.90
42201;DHT22;27869;51.442;7.540;2023-11-21T00:07:25;6.50;99.90
42201;DHT22;27869;51.442;7.540;2023-11-21T00:09:52;6.50;99.90
42201;DHT22;27869;51.442;7.540;2023-11-21T00:12:21;6.50;99.90
42201;DHT22;27869;51.442;7.540;2023-11-21T00:14:48;6.50;99.90
42201;DHT22;27869;51.442;7.540;2023-11-21T00:17:15;6.50;99.90
42201;DHT22;27869;51.442;7.540;2023-11-21T00:19:41;6.50;99.90
42201;DHT22;27869;51.442;7.540;2023-11-21T00:22:09;6.50;99.90
42201;DHT22;27869;51.442;7.540;2023-11-21T00:24:40;6.50;99.90
42201;DHT22;27869;51.442;7.540;2023-11-21T00:27:06;6.50;99.90
42201;DHT22;27869;51.442;7.540;2023-11-21T00:29:33;6.50;99.90
42201;DHT22;27869;51.442;7.540;2023-11-21T00:32:00;6.50;99.90
42201;DHT22;27869;51.442;7.540;2023-11-21T00:34:27;6.50;99.90
42201;DHT22;27869;51.442;7.540;2023-11-21T00:36:54;6.60;99.90
42201;DHT22;27869;51.442;7.540;2023-11-21T00:39:21;6.60;99.90
42201;DHT22;27869;51.442;7.540;2023-11-21T00:41:49;6.60;99.90
42201;DHT22;27869;51.442;7.540;2023-11-21T00:44:16;6.60;99.90
42201;DHT22;27869;51.442;7.540;2023-11-21T00:46:42;6.60;99.90
42201;DHT22;27869;51.442;7.540;2023-11-21T00:49:09;6.60;99.90
42201;DHT22;27869;51.442;7.540;2023-11-21T00:51:36;6.60;99.90
42201;DHT22;27869;51.442;7.540;2023-11-21T00:54:03;6.70;99.90
42201;DHT22;27869;51.442;7.540;2023-11-21T00:56:32;6.70;99.90
42201;DHT22;27869;51.442;7.540;2023-11-21T00:59:00;6.70;99.90
42201;DHT22;27869;51.442;7.540;2023-11-21T01:01:27;6.70;99.90
42201;DHT22;27869;51.442;7.540;2023-11-21T01:03:55;6.70;99.90
42201;DHT22;27869;51.442;7.540;2023-11-21T01:06:22;6.70;99.90
42201;DHT22;27869;51.442;7.540;2023-11-21T01:08:49;6.80;99.90
42201;DHT22;27869;51.442;7.540;2023-11-21T01:11:15;6.80;99.90
42201;DHT22;27869;51.442;7.540;2023-11-21T01:13:43;6.80;99.90
42201;DHT22;27869;51.442;7.540;2023-11-21T01:16:11;6.80;99.90
42201;DHT22;27869;51.442;7.540;2023-11-21T01:18:38;6.80;99.90
42201;DHT22;27869;51.442;7.540;2023-11-21T01:21:05;6.90;99.90
42201;DHT22;27869;51.442;7.540;2023-11-21T01:23:33;6.80;99.90
42201;DHT22;27869;51.442;7.540;2023-11-21T01:26:02;6.90;99.90
42201;DHT22;27869;51.442;7.540;2023-11-21T01:28:29;6.90;99.90
42201;DHT22;27869;51.442;7.540;2023-11-21T01:30:56;6.90;99.90
42201;DHT22;27869;51.442;7.540;2023-11-21T01:33:24;6.90;99.90
42201;DHT22;27869;51.442;7.540;2023-11-21T01:35:51;6.90;99.90
42201;DHT22;27869;51.442;7.540;2023-11-21T01:38:20;7.00;99.90
42201;DHT22;27869;51.442;7.540;2023-11-21T01:40:47;7.00;99.90
42201;DHT22;27869;51.442;7.540;2023-11-21T01:43:14;7.00;99.90
42201;DHT22;27869;51.442;7.540;2023-11-21T01:45:42;7.00;99.90
42201;DHT22;27869;51.442;7.540;2023-11-21T01:48:10;7.00;99.90
42201;DHT22;27869;51.442;7.540;2023-11-21T01:50:39;7.00;99.90
42201;DHT22;27869;51.442;7.540;2023-11-21T01:53:06;7.00;99.90
42201;DHT22;27869;51.442;7.540;2023-11-21T01:55:33;7.00;99.90
42201;DHT22;27869;51.442;7.540;2023-11-21T01:58:00;7.00;99.90
42201;DHT22;27869;51.442;7.540;2023-11-21T02:00:27;7.00;99.90
42201;DHT22;27869;51.442;7.540;2023-11-21T02:02:55;7.00;99.90
42201;DHT22;27869;51.442;7.540;2023-11-21T02:05:22;7.00;99.90
42201;DHT22;27869;51.442;7.540;2023-11-21T02:07:50;7.00;99.90
42201;DHT22;27869;51.442;7.540;2023-11-21T02:10:18;7.00;99.90
42201;DHT22;27869;51.442;7.540;2023-11-21T02:12:48;7.00;99.90
42201;DHT22;27869;51.442;7.540;2023-11-21T02:15:16;7.00;99.90
42201;DHT22;27869;51.442;7.540;2023-11-21T02:17:45;7.00;99.90
42201;DHT22;27869;51.442;7.540;2023-11-21T02:20:13;7.00;99.90
42201;DHT22;27869;51.442;7.540;2023-11-21T02:22:41;7.00;99.90
42201;DHT22;27869;51.442;7.540;2023-11-21T02:25:10;7.00;99.90
42201;DHT22;27869;51.442;7.540;2023-11-21T02:27:36;7.00;99.90
42201;DHT22;27869;51.442;7.540;2023-11-21T02:30:05;7.00;99.90
42201;DHT22;27869;51.442;7.540;2023-11-21T02:32:33;7.00;99.90
42201;DHT22;27869;51.442;7.540;2023-11-21T02:35:00;7.00;99.90
42201;DHT22;27869;51.442;7.540;2023-11-21T02:37:28;7.00;99.90
42201;DHT22;27869;51.442;7.540;2023-11-21T02:39:54;7.00;99.90
42201;DHT22;27869;51.442;7.540;2023-11-21T02:42:23;7.00;99.90
42201;DHT22;27869;51.442;7.540;2023-11-21T02:44:49;7.00;99.90
42201;DHT22;27869;51.442;7.540;2023-11-21T02:47:16;7.00;99.90
42201;DHT22;27869;51.442;7.540;2023-11-21T02:49:43;7.00;99.90
42201;DHT22;27869;51.442;7.540;2023-11-21T02:52:10;7.00;99.90
42201;DHT22;27869;51.442;7.540;2023-11-21T02:54:37;7.00;99.90
42201;DHT22;27869;51.442;7.540;2023-11-21T02:57:04;7.00;99.90
42201;DHT22;27869;51.442;7.540;2023-11-21T02:59:32;7.00;99.90
42201;DHT22;27869;51.442;7.540;2023-11-21T03:01:59;7.00;99.90
42201;DHT22;27869;51.442;7.540;2023-11-21T03:04:26;6.90;99.90
42201;DHT22;27869;51.442;7.540;2023-11-21T03:06:53;7.00;99.90
42201;DHT22;27869;51.442;7.540;2023-11-21T03:09:19;7.00;99.90
42201;DHT22;27869;51.442;7.540;2023-11-21T03:11:46;7.00;99.90
42201;DHT22;27869;51.442;7.540;2023-11-21T03:14:13;7.00;99.90
42201;DHT22;27869;51.442;7.540;2023-11-21T03:16:41;7.00;99.90
42201;DHT22;27869;51.442;7.540;2023-11-21T03:19:10;7.00;99.90
42201;DHT22;27869;51.442;7.540;2023-11-21T03:21:37;7.00;99.90
42201;DHT22;27869;51.442;7.540;2023-11-21T03:24:05;7.00;99.90
42201;DHT22;27869;51.442;7.540;2023-11-21T03:26:32;7.00;99.90
42201;DHT22;27869;51.442;7.540;2023-11-21T03:28:59;7.00;99.90
42201;DHT22;27869;51.442;7.540;2023-11-21T03:31:26;7.00;99.90
42201;DHT22;27869;51.442;7.540;2023-11-21T03:33:54;7.00;99.90
42201;DHT22;27869;51.442;7.540;2023-11-21T03:36:21;7.00;99.90
42201;DHT22;27869;51.442;7.540;2023-11-21T03:38:48;7.00;99.90
42201;DHT22;27869;51.442;7.540;2023-11-21T03:41:15;7.10;99.90
42201;DHT22;27869;51.442;7.540;2023-11-21T03:43:42;7.00;99.90
42201;DHT22;27869;51.442;7.540;2023-11-21T03:46:08;7.00;99.90
42201;DHT22;27869;51.442;7.540;2023-11-21T03:48:35;7.10;99.90
42201;DHT22;27869;51.442;7.540;2023-11-21T03:51:04;7.00;99.90
42201;DHT22;27869;51.442;7.540;2023-11-21T03:53:31;7.10;99.90
42201;DHT22;27869;51.442;7.540;2023-11-21T03:55:58;7.10;99.90
42201;DHT22;27869;51.442;7.540;2023-11-21T03:58:24;7.10;99.90
42201;DHT22;27869;51.442;7.540;2023-11-21T04:00:51;7.10;99.90
42201;DHT22;27869;51.442;7.540;2023-11-21T04:03:18;7.10;99.90
42201;DHT22;27869;51.442;7.540;2023-11-21T04:05:45;7.10;99.90
42201;DHT22;27869;51.442;7.540;2023-11-21T04:08:14;7.10;99.90
42201;DHT22;27869;51.442;7.540;2023-11-21T04:10:41;7.10;99.90
42201;DHT22;27869;51.442;7.540;2023-11-21T04:13:07;7.10;99.90
42201;DHT22;27869;51.442;7.540;2023-11-21T04:15:34;7.10;99.90
42201;DHT22;27869;51.442;7.540;2023-11-21T04:18:01;7.10;99.90
42201;DHT22;27869;51.442;7.540;2023-11-21T04:20:28;7.10;99.90
42201;DHT22;27869;51.442;7.540;2023-11-21T04:22:55;7.10;99.90
42201;DHT22;27869;51.442;7.540;2023-11-21T04:25:23;7.20;99.90
42201;DHT22;27869;51.442;7.540;2023-11-21T04:27:50;7.20;99.90
42201;DHT22;27869;51.442;7.540;2023-11-21T04:30:17;7.20;99.90
42201;DHT22;27869;51.442;7.540;2023-11-21T04:32:44;7.20;99.90
42201;DHT22;27869;51.442;7.540;2023-11-21T04:35:11;7.20;99.90
42201;DHT22;27869;51.442;7.540;2023-11-21T04:37:38;7.20;99.90
42201;DHT22;27869;51.442;7.540;2023-11-21T04:40:06;7.20;99.90
42201;DHT22;27869;51.442;7.540;2023-11-21T04:42:36;7.20;99.90
42201;DHT22;27869;51.442;7.540;2023-11-21T04:45:03;7.20;99.90
42201;DHT22;27869;51.442;7.540;2023-11-21T04:47:34;7.30;99.90
42201;DHT22;27869;51.442;7.540;2023-11-21T04:50:01;7.30;99.90
42201;DHT22;27869;51.442;7.540;2023-11-21T04:52:28;7.30;99.90
42201;DHT22;27869;51.442;7.540;2023-11-21T04:54:55;7.30;99.90
42201;DHT22;27869;51.442;7.540;2023-11-21T04:57:24;7.30;99.90
42201;DHT22;27869;51.442;7.540;2023-11-21T04:59:52;7.30;99.90
42201;DHT22;27869;51.442;7.540;2023-11-21T05:02:19;7.30;99.90
42201;DHT22;27869;51.442;7.540;2023-11-21T05:04:46;7.30;99.90
42201;DHT22;27869;51.442;7.540;2023-11-21T05:07:13;7.30;99.90
42201;DHT22;27869;51.442;7.540;2023-11-21T05:09:42;7.30;99.90
42201;DHT22;27869;51.442;7.540;2023-11-21T05:12:09;7.30;99.90
42201;DHT22;27869;51.442;7.540;2023-11-21T05:14:36;7.40;99.90
42201;DHT22;27869;51.442;7.540;2023-11-21T05:17:05;7.40;99.90
42201;DHT22;27869;51.442;7.540;2023-11-21T05:19:33;7.40;99.90
42201;DHT22;27869;51.442;7.540;2023-11-21T05:22:01;7.40;99.90
42201;DHT22;27869;51.442;7.540;2023-11-21T05:24:28;7.40;99.90
42201;DHT22;27869;51.442;7.540;2023-11-21T05:26:57;7.40;99.90
42201;DHT22;27869;51.442;7.540;2023-11-21T05:29:24;7.40;99.90
42201;DHT22;27869;51.442;7.540;2023-11-21T05:31:51;7.40;99.90
42201;DHT22;27869;51.442;7.540;2023-11-21T05:34:19;7.40;99.90
42201;DHT22;27869;51.442;7.540;2023-11-21T05:36:49;7.40;99.90
42201;DHT22;27869;51.442;7.540;2023-11-21T05:39:16;7.40;99.90
42201;DHT22;27869;51.442;7.540;2023-11-21T05:41:44;7.40;99.90
42201;DHT22;27869;51.442;7.540;2023-11-21T05:44:11;7.40;99.90
42201;DHT22;27869;51.442;7.540;2023-11-21T05:46:40;7.40;99.90
42201;DHT22;27869;51.442;7.540;2023-11-21T05:49:08;7.40;99.90
42201;DHT22;27869;51.442;7.540;2023-11-21T05:51:36;7.40;99.90
42201;DHT22;27869;51.442;7.540;2023-11-21T05:54:04;7.40;99.90
42201;DHT22;27869;51.442;7.540;2023-11-21T05:56:31;7.40;99.90
42201;DHT22;27869;51.442;7.540;2023-11-21T05:58:58;7.40;99.90
42201;DHT22;27869;51.442;7.540;2023-11-21T06:01:25;7.40;99.90
42201;DHT22;27869;51.442;7.540;2023-11-21T06:03:53;7.40;99.90
42201;DHT22;27869;51.442;7.540;2023-11-21T06:06:20;7.40;99.90
42201;DHT22;27869;51.442;7.540;2023-11-21T06:08:49;7.40;99.90
42201;DHT22;27869;51.442;7.540;2023-11-21T06:11:16;7.40;99.90
42201;DHT22;27869;51.442;7.540;2023-11-21T06:13:43;7.40;99.90
42201;DHT22;27869;51.442;7.540;2023-11-21T06:16:10;7.40;99.90
42201;DHT22;27869;51.442;7.540;2023-11-21T06:18:38;7.50;99.90
42201;DHT22;27869;51.442;7.540;2023-11-21T06:21:08;7.50;99.90
42201;DHT22;27869;51.442;7.540;2023-11-21T06:23:36;7.50;99.90
42201;DHT22;27869;51.442;7.540;2023-11-21T06:26:04;7.40;99.90
42201;DHT22;27869;51.442;7.540;2023-11-21T06:28:31;7.50;99.90
42201;DHT22;27869;51.442;7.540;2023-11-21T06:30:58;7.50;99.90
42201;DHT22;27869;51.442;7.540;2023-11-21T06:33:30;7.50;99.90
42201;DHT22;27869;51.442;7.540;2023-11-21T06:35:57;7.50;99.90
42201;DHT22;27869;51.442;7.540;2023-11-21T06:38:24;7.50;99.90
42201;DHT22;27869;51.442;7.540;2023-11-21T06:40:55;7.40;99.90
42201;DHT22;27869;51.442;7.540;2023-11-21T06:43:25;7.50;99.90
42201;DHT22;27869;51.442;7.540;2023-11-21T06:45:52;7.40;99.90
42201;DHT22;27869;51.442;7.540;2023-11-21T06:48:20;7.40;99.90
42201;DHT22;27869;51.442;7.540;2023-11-21T06:50:46;7.40;99.90
42201;DHT22;27869;51.442;7.540;2023-11-21T06:53:13;7.40;99.90
42201;DHT22;27869;51.442;7.540;2023-11-21T06:55:40;7.40;99.90
42201;DHT22;27869;51.442;7.540;2023-11-21T06:58:07;7.40;99.90
42201;DHT22;27869;51.442;7.540;2023-11-21T07:00:35;7.40;99.90
42201;DHT22;27869;51.442;7.540;2023-11-21T07:03:02;7.40;99.90
42201;DHT22;27869;51.442;7.540;2023-11-21T07:05:30;7.40;99.90
42201;DHT22;27869;51.442;7.540;2023-11-21T07:07:56;7.40;99.90
42201;DHT22;27869;51.442;7.540;2023-11-21T07:10:29;7.40;99.90
42201;DHT22;27869;51.442;7.540;2023-11-21T07:12:57;7.40;99.90
42201;DHT22;27869;51.442;7.540;2023-11-21T07:15:23;7.40;99.90
42201;DHT22;27869;51.442;7.540;2023-11-21T07:17:52;7.40;99.90
42201;DHT22;27869;51.442;7.540;2023-11-21T07:20:19;7.50;99.90
42201;DHT22;27869;51.442;7.540;2023-11-21T07:22:47;7.50;99.90
42201;DHT22;27869;51.442;7.540;2023-11-21T07:25:13;7.50;99.90
42201;DHT22;27869;51.442;7.540;2023-11-21T07:27:40;7.50;99.90
42201;DHT22;27869;51.442;7.540;2023-11-21T07:30:08;7.50;99.90
42201;DHT22;27869;51.442;7.540;2023-11-21T07:32:35;7.50;99.90
42201;DHT22;27869;51.442;7.540;2023-11-21T07:35:07;7.50;99.90
42201;DHT22;27869;51.442;7.540;2023-11-21T07:37:34;7.50;99.90
42201;DHT22;27869;51.442;7.540;2023-11-21T07:40:01;7.50;99.90
42201;DHT22;27869;51.442;7.540;2023-11-21T07:42:28;7.50;99.90
42201;DHT22;27869;51.442;7.540;2023-11-21T07:44:55;7.60;99.90
42201;DHT22;27869;51.442;7.540;2023-11-21T07:47:22;7.60;99.90
42201;DHT22;27869;51.442;7.540;2023-11-21T07:49:52;7.60;99.90
42201;DHT22;27869;51.442;7.540;2023-11-21T07:52:22;7.60;99.90
42201;DHT22;27869;51.442;7.540;2023-11-21T07:54:49;7.60;99.90
42201;DHT22;27869;51.442;7.540;2023-11-21T07:57:16;7.60;99.90
42201;DHT22;27869;51.442;7.540;2023-11-21T07:59:43;7.70;99.90
42201;DHT22;27869;51.442;7.540;2023-11-21T08:02:10;7.70;99.90
42201;DHT22;27869;51.442;7.540;2023-11-21T08:04:37;7.70;99.90
42201;DHT22;27869;51.442;7.540;2023-11-21T08:07:04;7.70;99.90
42201;DHT22;27869;51.442;7.540;2023-11-21T08:09:32;7.70;99.90
42201;DHT22;27869;51.442;7.540;2023-11-21T08:12:00;7.80;99.90
42201;DHT22;27869;51.442;7.540;2023-11-21T08:14:28;7.80;99.90
42201;DHT22;27869;51.442;7.540;2023-11-21T08:16:55;7.80;99.90
42201;DHT22;27869;51.442;7.540;2023-11-21T08:19:23;7.80;99.90
42201;DHT22;27869;51.442;7.540;2023-11-21T08:21:50;7.80;99.90
42201;DHT22;27869;51.442;7.540;2023-11-21T08:24:20;7.90;99.90
42201;DHT22;27869;51.442;7.540;2023-11-21T08:26:48;7.90;99.90
42201;DHT22;27869;51.442;7.540;2023-11-21T08:29:15;7.90;99.90
42201;DHT22;27869;51.442;7.540;2023-11-21T08:31:42;8.00;99.90
42201;DHT22;27869;51.442;7.540;2023-11-21T08:34:10;8.00;99.90
42201;DHT22;27869;51.442;7.540;2023-11-21T08:36:41;8.00;99.90
42201;DHT22;27869;51.442;7.540;2023-11-21T08:39:08;8.00;99.90
42201;DHT22;27869;51.442;7.540;2023-11-21T08:41:36;8.00;99.90
42201;DHT22;27869;51.442;7.540;2023-11-21T08:44:05;8.10;99.90
42201;DHT22;27869;51.442;7.540;2023-11-21T08:46:33;8.10;99.90
42201;DHT22;27869;51.442;7.540;2023-11-21T08:49:02;8.10;99.90
42201;DHT22;27869;51.442;7.540;2023-11-21T08:51:29;8.20;99.90
42201;DHT22;27869;51.442;7.540;2023-11-21T08:53:57;8.20;99.90
42201;DHT22;27869;51.442;7.540;2023-11-21T08:56:26;8.20;99.90
42201;DHT22;27869;51.442;7.540;2023-11-21T08:58:53;8.20;99.90
42201;DHT22;27869;51.442;7.540;2023-11-21T09:01:21;8.20;99.90
42201;DHT22;27869;51.442;7.540;2023-11-21T09:03:48;8.20;99.90
42201;DHT22;27869;51.442;7.540;2023-11-21T09:06:16;8.30;99.90
42201;DHT22;27869;51.442;7.540;2023-11-21T09:08:43;8.30;99.90
42201;DHT22;27869;51.442;7.540;2023-11-21T09:11:09;8.30;99.90
42201;DHT22;27869;51.442;7.540;2023-11-21T09:13:36;8.30;99.90
42201;DHT22;27869;51.442;7.540;2023-11-21T09:16:03;8.40;99.90
42201;DHT22;27869;51.442;7.540;2023-11-21T09:18:32;8.40;99.90
42201;DHT22;27869;51.442;7.540;2023-11-21T09:20:59;8.40;99.90
42201;DHT22;27869;51.442;7.540;2023-11-21T09:23:26;8.40;99.90
42201;DHT22;27869;51.442;7.540;2023-11-21T09:25:53;8.50;99.90
42201;DHT22;27869;51.442;7.540;2023-11-21T09:28:22;8.50;99.90
42201;DHT22;27869;51.442;7.540;2023-11-21T09:30:49;8.50;99.90
42201;DHT22;27869;51.442;7.540;2023-11-21T09:33:16;8.60;99.90
42201;DHT22;27869;51.442;7.540;2023-11-21T09:35:44;8.60;99.90
42201;DHT22;27869;51.442;7.540;2023-11-21T09:38:11;8.60;99.90
42201;DHT22;27869;51.442;7.540;2023-11-21T09:40:38;8.60;99.90
42201;DHT22;27869;51.442;7.540;2023-11-21T09:43:08;8.70;99.90
42201;DHT22;27869;51.442;7.540;2023-11-21T09:45:45;8.70;99.90
42201;DHT22;27869;51.442;7.540;2023-11-21T09:48:13;8.70;99.90
42201;DHT22;27869;51.442;7.540;2023-11-21T09:50:42;8.70;99.90
42201;DHT22;27869;51.442;7.540;2023-11-21T09:53:12;8.70;99.90
42201;DHT22;27869;51.442;7.540;2023-11-21T09:55:43;8.80;99.90
42201;DHT22;27869;51.442;7.540;2023-11-21T09:58:11;8.80;99.90
42201;DHT22;27869;51.442;7.540;2023-11-21T10:00:41;8.80;99.90
42201;DHT22;27869;51.442;7.540;2023-11-21T10:03:08;8.90;99.90
42201;DHT22;27869;51.442;7.540;2023-11-21T10:05:35;8.90;99.90
42201;DHT22;27869;51.442;7.540;2023-11-21T10:08:04;8.90;99.90
42201;DHT22;27869;51.442;7.540;2023-11-21T10:10:35;9.00;99.90
42201;DHT22;27869;51.442;7.540;2023-11-21T10:13:03;9.00;99.90
42201;DHT22;27869;51.442;7.540;2023-11-21T10:15:33;9.00;99.90
42201;DHT22;27869;51.442;7.540;2023-11-21T10:18:02;9.00;99.90
42201;DHT22;27869;51.442;7.540;2023-11-21T10:20:32;9.00;99.90
42201;DHT22;27869;51.442;7.540;2023-11-21T10:23:00;9.10;99.90
42201;DHT22;27869;51.442;7.540;2023-11-21T10:25:28;9.10;99.90
42201;DHT22;27869;51.442;7.540;2023-11-21T10:27:57;9.10;99.90
42201;DHT22;27869;51.442;7.540;2023-11-21T10:30:28;9.10;99.90
42201;DHT22;27869;51.442;7.540;2023-11-21T10:32:59;9.10;99.90
42201;DHT22;27869;51.442;7.540;2023-11-21T10:35:39;9.20;99.90
42201;DHT22;27869;51.442;7.540;2023-11-21T10:38:06;9.20;99.90
42201;DHT22;27869;51.442;7.540;2023-11-21T10:40:38;9.20;99.90
42201;DHT22;27869;51.442;7.540;2023-11-21T10:43:09;9.20;99.90
42201;DHT22;27869;51.442;7.540;2023-11-21T10:45:37;9.20;99.90
42201;DHT22;27869;51.442;7.540;2023-11-21T10:48:05;9.30;99.90
42201;DHT22;27869;51.442;7.540;2023-11-21T10:50:34;9.20;99.90
42201;DHT22;27869;51.442;7.540;2023-11-21T10:53:02;9.30;99.90
42201;DHT22;27869;51.442;7.540;2023-11-21T10:55:30;9.30;99.90
42201;DHT22;27869;51.442;7.540;2023-11-21T10:57:59;9.30;99.90
42201;DHT22;27869;51.442;7.540;2023-11-21T11:00:29;9.30;99.90
42201;DHT22;27869;51.442;7.540;2023-11-21T11:02:57;9.40;99.90
42201;DHT22;27869;51.442;7.540;2023-11-21T11:05:26;9.40;99.90
42201;DHT22;27869;51.442;7.540;2023-11-21T11:07:58;9.40;99.90
42201;DHT22;27869;51.442;7.540;2023-11-21T11:10:27;9.40;99.90
42201;DHT22;27869;51.442;7.540;2023-11-21T11:12:55;9.40;99.90
42201;DHT22;27869;51.442;7.540;2023-11-21T11:15:23;9.40;99.90
42201;DHT22;27869;51.442;7.540;2023-11-21T11:17:52;9.40;99.90
42201;DHT22;27869;51.442;7.540;2023-11-21T11:20:23;9.40;99.90
42201;DHT22;27869;51.442;7.540;2023-11-21T13:22:25;8.60;99.90
42201;DHT22;27869;51.442;7.540;2023-11-21T13:24:52;8.90;99.90
42201;DHT22;27869;51.442;7.540;2023-11-21T13:27:19;8.90;99.90
42201;DHT22;27869;51.442;7.540;2023-11-21T13:29:46;8.90;99.90
42201;DHT22;27869;51.442;7.540;2023-11-21T13:32:13;8.90;99.90
42201;DHT22;27869;51.442;7.540;2023-11-21T13:34:42;8.90;99.90
42201;DHT22;27869;51.442;7.540;2023-11-21T13:37:10;8.90;99.90
42201;DHT22;27869;51.442;7.540;2023-11-21T13:39:39;9.00;99.90
42201;DHT22;27869;51.442;7.540;2023-11-21T13:42:10;9.00;99.90
42201;DHT22;27869;51.442;7.540;2023-11-21T13:44:37;9.00;99.90
42201;DHT22;27869;51.442;7.540;2023-11-21T13:47:09;9.00;99.90
42201;DHT22;27869;51.442;7.540;2023-11-21T13:49:36;9.00;99.90
42201;DHT22;27869;51.442;7.540;2023-11-21T13:52:06;9.00;99.90
42201;DHT22;27869;51.442;7.540;2023-11-21T13:54:33;9.00;99.90
42201;DHT22;27869;51.442;7.540;2023-11-21T13:57:01;9.00;99.90
42201;DHT22;27869;51.442;7.540;2023-11-21T13:59:29;9.00;99.90
42201;DHT22;27869;51.442;7.540;2023-11-21T14:01:57;9.00;99.90
42201;DHT22;27869;51.442;7.540;2023-11-21T14:04:26;9.00;99.90
42201;DHT22;27869;51.442;7.540;2023-11-21T14:07:15;9.00;99.90
42201;DHT22;27869;51.442;7.540;2023-11-21T14:09:51;9.00;99.90
42201;DHT22;27869;51.442;7.540;2023-11-21T14:12:19;9.00;99.90
42201;DHT22;27869;51.442;7.540;2023-11-21T14:14:47;9.00;99.90
42201;DHT22;27869;51.442;7.540;2023-11-21T14:17:14;9.00;99.90
42201;DHT22;27869;51.442;7.540;2023-11-21T14:19:41;9.00;99.90
42201;DHT22;27869;51.442;7.540;2023-11-21T14:22:09;8.90;99.90
42201;DHT22;27869;51.442;7.540;2023-11-21T14:24:36;9.00;99.90
42201;DHT22;27869;51.442;7.540;2023-11-21T14:27:07;9.00;99.90
42201;DHT22;27869;51.442;7.540;2023-11-21T14:29:35;9.00;99.90
42201;DHT22;27869;51.442;7.540;2023-11-21T14:32:05;9.00;99.90
42201;DHT22;27869;51.442;7.540;2023-11-21T14:34:32;8.90;99.90
42201;DHT22;27869;51.442;7.540;2023-11-21T14:36:58;9.00;99.90
42201;DHT22;27869;51.442;7.540;2023-11-21T14:39:28;8.90;99.90
42201;DHT22;27869;51.442;7.540;2023-11-21T14:41:57;8.90;99.90
42201;DHT22;27869;51.442;7.540;2023-11-21T14:44:25;8.90;99.90
42201;DHT22;27869;51.442;7.540;2023-11-21T14:46:55;8.90;99.90
42201;DHT22;27869;51.442;7.540;2023-11-21T14:49:23;8.80;99.90
42201;DHT22;27869;51.442;7.540;2023-11-21T14:51:54;8.80;99.90
42201;DHT22;27869;51.442;7.540;2023-11-21T14:54:31;8.80;99.90
42201;DHT22;27869;51.442;7.540;2023-11-21T14:57:06;8.80;99.90
42201;DHT22;27869;51.442;7.540;2023-11-21T14:59:37;8.80;99.90
42201;DHT22;27869;51.442;7.540;2023-11-21T15:02:06;8.80;99.90
42201;DHT22;27869;51.442;7.540;2023-11-21T15:04:41;8.70;99.90
42201;DHT22;27869;51.442;7.540;2023-11-21T15:07:09;8.70;99.90
42201;DHT22;27869;51.442;7.540;2023-11-21T15:09:36;8.70;99.90
42201;DHT22;27869;51.442;7.540;2023-11-21T15:12:07;8.60;99.90
42201;DHT22;27869;51.442;7.540;2023-11-21T15:14:44;8.60;99.90
42201;DHT22;27869;51.442;7.540;2023-11-21T15:17:15;8.60;99.90
42201;DHT22;27869;51.442;7.540;2023-11-21T15:19:48;8.50;99.90
42201;DHT22;27869;51.442;7.540;2023-11-21T15:22:15;8.50;99.90
42201;DHT22;27869;51.442;7.540;2023-11-21T15:24:45;8.50;99.90
42201;DHT22;27869;51.442;7.540;2023-11-21T15:27:13;8.50;99.90
42201;DHT22;27869;51.442;7.540;2023-11-21T15:29:41;8.40;99.90
42201;DHT22;27869;51.442;7.540;2023-11-21T15:32:08;8.40;99.90
42201;DHT22;27869;51.442;7.540;2023-11-21T15:34:37;8.40;99.90
42201;DHT22;27869;51.442;7.540;2023-11-21T15:37:05;8.40;99.90
42201;DHT22;27869;51.442;7.540;2023-11-21T15:39:37;8.40;99.90
42201;DHT22;27869;51.442;7.540;2023-11-21T15:42:04;8.40;99.90
42201;DHT22;27869;51.442;7.540;2023-11-21T15:44:33;8.40;99.90
42201;DHT22;27869;51.442;7.540;2023-11-21T15:47:00;8.40;99.90
42201;DHT22;27869;51.442;7.540;2023-11-21T15:49:29;8.40;99.90
42201;DHT22;27869;51.442;7.540;2023-11-21T15:52:01;8.30;99.90
42201;DHT22;27869;51.442;7.540;2023-11-21T15:54:28;8.30;99.90
42201;DHT22;27869;51.442;7.540;2023-11-21T15:56:56;8.30;99.90
42201;DHT22;27869;51.442;7.540;2023-11-21T15:59:24;8.20;99.90
42201;DHT22;27869;51.442;7.540;2023-11-21T16:01:55;8.20;99.90
42201;DHT22;27869;51.442;7.540;2023-11-21T16:04:23;8.20;99.90
42201;DHT22;27869;51.442;7.540;2023-11-21T16:06:52;8.10;99.90
42201;DHT22;27869;51.442;7.540;2023-11-21T16:09:20;8.10;99.90
42201;DHT22;27869;51.442;7.540;2023-11-21T16:11:49;8.10;99.90
42201;DHT22;27869;51.442;7.540;2023-11-21T16:14:18;8.10;99.90
42201;DHT22;27869;51.442;7.540;2023-11-21T16:16:51;8.10;99.90
42201;DHT22;27869;51.442;7.540;2023-11-21T16:19:17;8.10;99.90
42201;DHT22;27869;51.442;7.540;2023-11-21T16:21:45;8.00;99.90
42201;DHT22;27869;51.442;7.540;2023-11-21T16:24:12;8.00;99.90
42201;DHT22;27869;51.442;7.540;2023-11-21T16:26:43;8.00;99.90
42201;DHT22;27869;51.442;7.540;2023-11-21T16:29:11;7.90;99.90
42201;DHT22;27869;51.442;7.540;2023-11-21T16:31:38;7.90;99.90
42201;DHT22;27869;51.442;7.540;2023-11-21T16:34:12;7.90;99.90
42201;DHT22;27869;51.442;7.540;2023-11-21T16:36:39;7.90;99.90
42201;DHT22;27869;51.442;7.540;2023-11-21T16:39:07;7.90;99.90
42201;DHT22;27869;51.442;7.540;2023-11-21T16:41:35;7.80;99.90
42201;DHT22;27869;51.442;7.540;2023-11-21T16:44:04;7.70;99.90
42201;DHT22;27869;51.442;7.540;2023-11-21T16:46:31;7.70;99.90
42201;DHT22;27869;51.442;7.540;2023-11-21T16:48:58;7.60;99.90
42201;DHT22;27869;51.442;7.540;2023-11-21T16:51:25;7.60;99.90
42201;DHT22;27869;51.442;7.540;2023-11-21T16:53:52;7.50;99.90
42201;DHT22;27869;51.442;7.540;2023-11-21T16:56:22;7.50;99.90
42201;DHT22;27869;51.442;7.540;2023-11-21T16:58:49;7.50;99.90
42201;DHT22;27869;51.442;7.540;2023-11-21T17:01:17;7.50;99.90
42201;DHT22;27869;51.442;7.540;2023-11-21T17:03:45;7.50;99.90
42201;DHT22;27869;51.442;7.540;2023-11-21T17:06:11;7.50;99.90
42201;DHT22;27869;51.442;7.540;2023-11-21T17:08:41;7.50;99.90
42201;DHT22;27869;51.442;7.540;2023-11-21T17:11:10;7.50;99.90
42201;DHT22;27869;51.442;7.540;2023-11-21T17:13:39;7.40;99.90
42201;DHT22;27869;51.442;7.540;2023-11-21T17:16:06;7.40;99.90
42201;DHT22;27869;51.442;7.540;2023-11-21T17:18:34;7.40;99.90
42201;DHT22;27869;51.442;7.540;2023-11-21T17:21:01;7.40;99.90
42201;DHT22;27869;51.442;7.540;2023-11-21T17:23:29;7.40;99.90
42201;DHT22;27869;51.442;7.540;2023-11-21T17:25:56;7.40;99.90
42201;DHT22;27869;51.442;7.540;2023-11-21T17:28:23;7.40;99.90
42201;DHT22;27869;51.442;7.540;2023-11-21T17:30:50;7.30;99.90
42201;DHT22;27869;51.442;7.540;2023-11-21T17:33:17;7.30;99.90
42201;DHT22;27869;51.442;7.540;2023-11-21T17:35:45;7.30;99.90
42201;DHT22;27869;51.442;7.540;2023-11-21T17:38:12;7.20;99.90
42201;DHT22;27869;51.442;7.540;2023-11-21T17:40:40;7.20;99.90
42201;DHT22;27869;51.442;7.540;2023-11-21T17:43:07;7.20;99.90
42201;DHT22;27869;51.442;7.540;2023-11-21T17:45:36;7.20;99.90
42201;DHT22;27869;51.442;7.540;2023-11-21T17:48:03;7.10;99.90